• Join FlightAware (Why Join?)
  • Login
  • US Flag 
11:43AM EDT


 

Airport Tracker/Info


-or-


 

Live Flight TrackerFlight Track Log ✈ UAL706 ✈ 03-May-2012 ✈ PHOG / OGG - KSFO

Flight Track Log - Related Links

Times and Time Zones

All times are in EDT time to prevent confusion due to time zone crossing. See the UAL706 flight status page for this flight to view local times or setup timezone preferences in your user account.

Time Position Orientation Groundspeed Altitude Reporting Facility
EDT Latitude Longitude Course Direction KTS MPH feet Rate Location/Type
02:47AM 20.9215 -156.4067 37° Northeast  Level FlightAware Approximate
02:48AM 21.0142 -156.3183 223° Southwest  Level FlightAware Approximate
02:49AM 20.9500 -156.3833 35° Northeast 210 242 3,100  Level Honolulu Center
02:50AM 21.0167 -156.3333 43° Northeast 250 288 5,600 2,880 Climbing Honolulu Center
02:51AM 21.0667 -156.2833 35° Northeast 270 311 9,000 3,060 Climbing Honolulu Center
02:52AM 21.1333 -156.2333 43° Northeast 280 322 11,800 2,040 Climbing Honolulu Center
02:53AM 21.2000 -156.1667 49° Northeast 330 380 13,100 1,680 Climbing Honolulu Center
02:54AM 21.2667 -156.0833 43° Northeast 370 426 15,200 2,160 Climbing Honolulu Center
02:55AM 21.3500 -156.0000 49° Northeast 390 449 17,500 2,100 Climbing Honolulu Center
02:56AM 21.4167 -155.9167 43° Northeast 410 472 19,500 1,980 Climbing Honolulu Center
02:57AM 21.5000 -155.8333 43° Northeast 420 483 21,500 1,860 Climbing Honolulu Center
02:58AM 21.5833 -155.7500 43° Northeast 440 506 23,300 1,800 Climbing Honolulu Center
02:59AM 21.6833 -155.6500 48° Northeast 440 506 25,100 1,740 Climbing Honolulu Center
03:00AM 21.7667 -155.5500 48° Northeast 450 518 26,800 1,440 Climbing Honolulu Center
03:01AM 21.8500 -155.4500 38° Northeast 460 529 28,100 1,380 Climbing Honolulu Center
03:02AM 21.9500 -155.3667 48° Northeast 460 529 29,600 1,620 Climbing Honolulu Center
03:03AM 22.0333 -155.2667 43° Northeast 460 529 31,400 1,680 Climbing Honolulu Center
03:04AM 22.1333 -155.1667 48° Northeast 450 518 33,000 1,380 Climbing Honolulu Center
03:05AM 22.2167 -155.0667 48° Northeast 450 518 34,200 1,140 Climbing Honolulu Center
03:06AM 22.3000 -154.9667 38° Northeast 440 506 35,300 840 Climbing Honolulu Center
03:07AM 22.4000 -154.8833 48° Northeast 450 518 36,000 300 Climbing Honolulu Center
03:08AM 22.4833 -154.7833 48° Northeast 450 518 36,000  Level Honolulu Center
03:09AM 22.5667 -154.6833 43° Northeast 450 518 36,000  Level Honolulu Center
03:10AM 22.6667 -154.5833 43° Northeast 440 506 36,000  Level Honolulu Center
03:11AM 22.7500 -154.5000 48° Northeast 440 506 36,000  Level Honolulu Center
03:12AM 22.8333 -154.4000 43° Northeast 440 506 36,000  Level Honolulu Center
03:13AM 22.9167 -154.3167 45° Northeast 440 506 36,000  Level Honolulu Center
03:24AM 23.7833 -153.3667 57° Northeast 443 510 36,000  Level Oakland Oceanic (ODAPS)
04:17AM 27.2333 -147.2167 59° Northeast 470 541 36,000  Level Oakland Oceanic (ODAPS)
05:08AM 30.4000 -140.7000 63° Northeast 500 575 36,000  Level Oakland Oceanic (ODAPS)
05:56AM 33.2833 -133.6167 66° East 534 615 36,000  Level Oakland Oceanic (ODAPS)
06:38AM 35.6619 -126.3072 70° East 502 578 36,000  Level Oakland Center
06:39AM 35.7136 -126.1292 69° East 527 606 36,000 -60 Level Oakland Center
06:40AM 35.7694 -125.9511 65° Northeast 542 624 35,900  Descending Oakland Center
06:41AM 35.8350 -125.7761 60° Northeast 547 629 36,000  Climbing Oakland Center
06:42AM 35.9106 -125.6114 61° Northeast 547 629 36,000  Level Oakland Center
06:43AM 35.9858 -125.4442 60° Northeast 552 635 36,000  Level Oakland Center
06:44AM 36.0631 -125.2764 60° Northeast 552 635 36,000 -60 Level Oakland Center
06:45AM 36.1400 -125.1083 60° Northeast 552 635 35,900 -60 Descending Oakland Center
06:46AM 36.2169 -124.9400 59° Northeast 552 635 35,900  Level Oakland Center
06:47AM 36.2975 -124.7717 60° Northeast 552 635 35,900  Level Oakland Center
06:48AM 36.3736 -124.6050 61° Northeast 552 635 36,000  Climbing Oakland Center
06:49AM 36.4478 -124.4356 60° Northeast 552 635 35,900 -60 Descending Oakland Center
06:50AM 36.5256 -124.2686 62° Northeast 552 635 35,900 -720 Level Oakland Center
06:51AM 36.5989 -124.0983 60° Northeast 552 635 34,500 -1,620 Descending Oakland Center
06:52AM 36.6764 -123.9281 61° Northeast 552 635 32,700 -2,100 Descending Oakland Center
06:53AM 36.7514 -123.7600 62° Northeast 552 635 30,300 -2,400 Descending Oakland Center
06:54AM 36.8242 -123.5914 61° Northeast 552 635 27,900 -2,400 Descending Oakland Center
06:55AM 36.8967 -123.4278 61° Northeast 547 629 25,500 -2,520 Descending Oakland Center
06:56AM 36.9664 -123.2714 62° Northeast 540 621 22,900 -2,520 Descending Oakland Center
06:57AM 37.0319 -123.1197 62° Northeast 513 590 20,500 -2,520 Descending Oakland Center
06:58AM 37.0908 -122.9783 61° Northeast 475 547 17,900 -2,400 Descending Oakland Center
06:59AM 37.1494 -122.8444 62° Northeast 447 514 15,800 -2,220 Descending Oakland Center
07:00AM 37.2033 -122.7181 61° Northeast 422 486 13,500 -2,280 Descending Oakland Center
07:01AM 37.2553 -122.5992 61° Northeast 398 458 11,300 -1,500 Descending Oakland Center
07:02AM 37.3025 -122.4906 62° Northeast 372 428 10,500 -900 Descending Oakland Center
07:03AM 37.3433 -122.3919 62° Northeast 336 387 9,500 -1,260 Descending Oakland Center
07:04AM 37.3819 -122.3014 62° Northeast 306 352 8,000 -1,020 Descending Oakland Center
07:05AM 37.4142 -122.2261 61° Northeast 273 314 7,500 -1,200 Descending Oakland Center
07:06AM 37.4439 -122.1586 17° North 238 274 5,700 -1,920 Descending Oakland Center
07:07AM 37.4964 -122.1383 316° Northwest 185 213 3,700 -1,440 Descending Oakland Center
07:08AM 37.5333 -122.1833 310° West 181 208 2,700 -780 Descending Northern Cal TRACON
07:09AM 37.5667 -122.2333 293° West 167 192 2,100 -660 Descending Northern Cal TRACON
07:10AM 37.5833 -122.2833 302° West 133 153 1,400 -720 Descending Northern Cal TRACON
07:11AM 37.6000 -122.3167 302° West 123 142 700 -720 Descending Northern Cal TRACON